sensor_id;sensor_type;location;lat;lon;timestamp;P1;durP1;ratioP1;P2;durP2;ratioP2
793;SDS011;380;48.738;9.214;2023-03-16T00:01:15;13.35;;;9.15;;
793;SDS011;380;48.738;9.214;2023-03-16T00:03:42;10.00;;;9.00;;
793;SDS011;380;48.738;9.214;2023-03-16T00:06:08;10.30;;;8.45;;
793;SDS011;380;48.738;9.214;2023-03-16T00:08:34;8.18;;;7.20;;
793;SDS011;380;48.738;9.214;2023-03-16T00:11:00;11.15;;;9.30;;
793;SDS011;380;48.738;9.214;2023-03-16T00:13:27;9.53;;;8.07;;
793;SDS011;380;48.738;9.214;2023-03-16T00:15:54;10.30;;;8.57;;
793;SDS011;380;48.738;9.214;2023-03-16T00:18:20;9.43;;;6.83;;
793;SDS011;380;48.738;9.214;2023-03-16T00:20:53;10.40;;;6.77;;
793;SDS011;380;48.738;9.214;2023-03-16T00:23:20;10.93;;;7.40;;
793;SDS011;380;48.738;9.214;2023-03-16T00:25:52;6.10;;;5.50;;
793;SDS011;380;48.738;9.214;2023-03-16T00:28:18;9.63;;;8.57;;
793;SDS011;380;48.738;9.214;2023-03-16T00:30:43;7.63;;;6.85;;
793;SDS011;380;48.738;9.214;2023-03-16T00:33:11;9.30;;;8.37;;
793;SDS011;380;48.738;9.214;2023-03-16T00:35:37;14.47;;;8.83;;
793;SDS011;380;48.738;9.214;2023-03-16T00:38:03;9.80;;;8.80;;
793;SDS011;380;48.738;9.214;2023-03-16T00:40:29;12.27;;;9.77;;
793;SDS011;380;48.738;9.214;2023-03-16T00:42:55;11.23;;;9.90;;
793;SDS011;380;48.738;9.214;2023-03-16T00:45:21;10.98;;;9.45;;
793;SDS011;380;48.738;9.214;2023-03-16T00:47:47;9.17;;;7.83;;
793;SDS011;380;48.738;9.214;2023-03-16T00:50:13;11.80;;;7.57;;
793;SDS011;380;48.738;9.214;2023-03-16T00:52:39;9.67;;;8.60;;
793;SDS011;380;48.738;9.214;2023-03-16T00:55:06;9.65;;;7.97;;
793;SDS011;380;48.738;9.214;2023-03-16T00:57:32;9.80;;;8.23;;
793;SDS011;380;48.738;9.214;2023-03-16T00:59:58;8.27;;;7.30;;
793;SDS011;380;48.738;9.214;2023-03-16T01:02:30;9.60;;;8.10;;
793;SDS011;380;48.738;9.214;2023-03-16T01:04:56;11.90;;;8.07;;
793;SDS011;380;48.738;9.214;2023-03-16T01:07:22;11.53;;;7.57;;
793;SDS011;380;48.738;9.214;2023-03-16T01:09:48;9.13;;;7.30;;
793;SDS011;380;48.738;9.214;2023-03-16T01:12:15;8.68;;;7.53;;
793;SDS011;380;48.738;9.214;2023-03-16T01:14:42;10.50;;;8.27;;
793;SDS011;380;48.738;9.214;2023-03-16T01:17:09;10.23;;;9.10;;
793;SDS011;380;48.738;9.214;2023-03-16T01:19:38;10.87;;;8.20;;
793;SDS011;380;48.738;9.214;2023-03-16T01:22:05;9.57;;;8.57;;
793;SDS011;380;48.738;9.214;2023-03-16T01:24:32;9.77;;;8.73;;
793;SDS011;380;48.738;9.214;2023-03-16T01:27:01;9.10;;;8.17;;
793;SDS011;380;48.738;9.214;2023-03-16T01:29:28;10.90;;;9.77;;
793;SDS011;380;48.738;9.214;2023-03-16T01:31:54;12.77;;;8.30;;
793;SDS011;380;48.738;9.214;2023-03-16T01:34:21;11.40;;;7.43;;
793;SDS011;380;48.738;9.214;2023-03-16T01:36:47;11.00;;;9.03;;
793;SDS011;380;48.738;9.214;2023-03-16T01:39:14;8.63;;;6.87;;
793;SDS011;380;48.738;9.214;2023-03-16T01:41:40;10.30;;;8.60;;
793;SDS011;380;48.738;9.214;2023-03-16T01:44:14;10.67;;;9.43;;
793;SDS011;380;48.738;9.214;2023-03-16T01:46:40;10.43;;;9.40;;
793;SDS011;380;48.738;9.214;2023-03-16T01:51:35;9.00;;;6.60;;
793;SDS011;380;48.738;9.214;2023-03-16T01:54:03;13.23;;;11.83;;
793;SDS011;380;48.738;9.214;2023-03-16T01:56:32;9.30;;;7.60;;
793;SDS011;380;48.738;9.214;2023-03-16T01:59:01;13.43;;;9.40;;
793;SDS011;380;48.738;9.214;2023-03-16T02:01:30;10.20;;;9.15;;
793;SDS011;380;48.738;9.214;2023-03-16T02:04:01;15.57;;;10.90;;
793;SDS011;380;48.738;9.214;2023-03-16T02:06:27;13.85;;;10.13;;
793;SDS011;380;48.738;9.214;2023-03-16T02:08:54;9.90;;;8.93;;
793;SDS011;380;48.738;9.214;2023-03-16T02:11:21;10.27;;;9.13;;
793;SDS011;380;48.738;9.214;2023-03-16T02:13:48;13.27;;;9.97;;
793;SDS011;380;48.738;9.214;2023-03-16T02:16:15;18.07;;;9.07;;
793;SDS011;380;48.738;9.214;2023-03-16T02:18:43;10.97;;;9.10;;
793;SDS011;380;48.738;9.214;2023-03-16T02:23:40;11.77;;;10.57;;
793;SDS011;380;48.738;9.214;2023-03-16T02:31:03;10.33;;;9.30;;
793;SDS011;380;48.738;9.214;2023-03-16T02:33:29;9.63;;;8.73;;
793;SDS011;380;48.738;9.214;2023-03-16T02:35:57;7.77;;;6.80;;
793;SDS011;380;48.738;9.214;2023-03-16T02:38:23;10.77;;;8.77;;
793;SDS011;380;48.738;9.214;2023-03-16T02:40:56;11.33;;;8.80;;
793;SDS011;380;48.738;9.214;2023-03-16T02:43:24;8.93;;;7.93;;
793;SDS011;380;48.738;9.214;2023-03-16T02:45:56;9.50;;;8.50;;
793;SDS011;380;48.738;9.214;2023-03-16T02:48:26;8.52;;;7.30;;
793;SDS011;380;48.738;9.214;2023-03-16T02:50:53;9.65;;;7.57;;
793;SDS011;380;48.738;9.214;2023-03-16T02:53:20;7.90;;;7.07;;
793;SDS011;380;48.738;9.214;2023-03-16T02:55:46;13.10;;;8.87;;
793;SDS011;380;48.738;9.214;2023-03-16T02:58:12;9.07;;;6.70;;
793;SDS011;380;48.738;9.214;2023-03-16T03:00:39;11.33;;;6.80;;
793;SDS011;380;48.738;9.214;2023-03-16T03:03:06;14.27;;;8.30;;
793;SDS011;380;48.738;9.214;2023-03-16T03:05:33;11.60;;;9.43;;
793;SDS011;380;48.738;9.214;2023-03-16T03:07:59;11.63;;;8.23;;
793;SDS011;380;48.738;9.214;2023-03-16T03:10:25;10.43;;;8.93;;
793;SDS011;380;48.738;9.214;2023-03-16T03:12:51;8.77;;;7.77;;
793;SDS011;380;48.738;9.214;2023-03-16T03:15:17;16.30;;;8.97;;
793;SDS011;380;48.738;9.214;2023-03-16T03:17:43;9.77;;;7.93;;
793;SDS011;380;48.738;9.214;2023-03-16T03:20:10;13.00;;;9.37;;
793;SDS011;380;48.738;9.214;2023-03-16T03:22:43;8.20;;;7.27;;
793;SDS011;380;48.738;9.214;2023-03-16T03:25:10;10.13;;;8.23;;
793;SDS011;380;48.738;9.214;2023-03-16T03:27:36;12.03;;;7.90;;
793;SDS011;380;48.738;9.214;2023-03-16T03:30:03;9.43;;;7.20;;
793;SDS011;380;48.738;9.214;2023-03-16T03:32:29;11.20;;;7.57;;
793;SDS011;380;48.738;9.214;2023-03-16T03:34:55;8.73;;;7.27;;
793;SDS011;380;48.738;9.214;2023-03-16T03:37:21;9.90;;;6.33;;
793;SDS011;380;48.738;9.214;2023-03-16T03:39:47;10.33;;;6.60;;
793;SDS011;380;48.738;9.214;2023-03-16T03:42:13;7.50;;;6.07;;
793;SDS011;380;48.738;9.214;2023-03-16T03:44:39;9.27;;;6.87;;
793;SDS011;380;48.738;9.214;2023-03-16T03:47:05;7.33;;;5.47;;
793;SDS011;380;48.738;9.214;2023-03-16T03:49:31;8.60;;;6.10;;
793;SDS011;380;48.738;9.214;2023-03-16T03:51:57;11.77;;;5.90;;
793;SDS011;380;48.738;9.214;2023-03-16T03:54:23;7.13;;;5.73;;
793;SDS011;380;48.738;9.214;2023-03-16T03:56:50;6.40;;;5.73;;
793;SDS011;380;48.738;9.214;2023-03-16T03:59:16;8.40;;;6.13;;
793;SDS011;380;48.738;9.214;2023-03-16T04:01:42;6.33;;;5.70;;
793;SDS011;380;48.738;9.214;2023-03-16T04:04:08;6.37;;;5.57;;
793;SDS011;380;48.738;9.214;2023-03-16T04:06:34;6.27;;;5.67;;
793;SDS011;380;48.738;9.214;2023-03-16T04:09:00;13.63;;;8.97;;
793;SDS011;380;48.738;9.214;2023-03-16T04:11:26;11.30;;;8.90;;
793;SDS011;380;48.738;9.214;2023-03-16T04:13:51;8.43;;;7.23;;
793;SDS011;380;48.738;9.214;2023-03-16T04:16:18;11.43;;;6.83;;
793;SDS011;380;48.738;9.214;2023-03-16T04:18:44;12.20;;;9.37;;
793;SDS011;380;48.738;9.214;2023-03-16T04:21:14;9.00;;;8.10;;
793;SDS011;380;48.738;9.214;2023-03-16T04:23:41;10.27;;;7.47;;
793;SDS011;380;48.738;9.214;2023-03-16T04:26:07;7.47;;;6.50;;
793;SDS011;380;48.738;9.214;2023-03-16T04:28:33;8.83;;;7.13;;
793;SDS011;380;48.738;9.214;2023-03-16T04:31:06;6.90;;;5.97;;
793;SDS011;380;48.738;9.214;2023-03-16T04:33:34;8.50;;;7.47;;
793;SDS011;380;48.738;9.214;2023-03-16T04:36:00;7.40;;;6.67;;
793;SDS011;380;48.738;9.214;2023-03-16T04:38:27;9.20;;;7.90;;
793;SDS011;380;48.738;9.214;2023-03-16T04:40:53;12.27;;;8.27;;
793;SDS011;380;48.738;9.214;2023-03-16T04:43:19;11.17;;;9.97;;
793;SDS011;380;48.738;9.214;2023-03-16T04:45:45;11.53;;;8.77;;
793;SDS011;380;48.738;9.214;2023-03-16T04:48:11;11.00;;;8.30;;
793;SDS011;380;48.738;9.214;2023-03-16T04:50:37;12.00;;;8.90;;
793;SDS011;380;48.738;9.214;2023-03-16T04:53:03;8.07;;;7.10;;
793;SDS011;380;48.738;9.214;2023-03-16T04:55:29;11.70;;;9.17;;
793;SDS011;380;48.738;9.214;2023-03-16T04:57:55;11.70;;;9.20;;
793;SDS011;380;48.738;9.214;2023-03-16T05:00:21;13.07;;;7.97;;
793;SDS011;380;48.738;9.214;2023-03-16T05:02:48;10.93;;;9.53;;
793;SDS011;380;48.738;9.214;2023-03-16T05:05:16;8.13;;;7.27;;
793;SDS011;380;48.738;9.214;2023-03-16T05:07:42;11.10;;;7.57;;
793;SDS011;380;48.738;9.214;2023-03-16T05:10:10;10.07;;;7.43;;
793;SDS011;380;48.738;9.214;2023-03-16T05:12:36;12.70;;;10.07;;
793;SDS011;380;48.738;9.214;2023-03-16T05:15:03;11.17;;;7.67;;
793;SDS011;380;48.738;9.214;2023-03-16T05:17:29;9.80;;;8.80;;
793;SDS011;380;48.738;9.214;2023-03-16T05:19:55;7.70;;;6.93;;
793;SDS011;380;48.738;9.214;2023-03-16T05:22:21;9.80;;;7.73;;
793;SDS011;380;48.738;9.214;2023-03-16T05:24:47;12.40;;;9.50;;
793;SDS011;380;48.738;9.214;2023-03-16T05:27:13;7.93;;;7.13;;
793;SDS011;380;48.738;9.214;2023-03-16T05:29:39;12.90;;;9.20;;
793;SDS011;380;48.738;9.214;2023-03-16T05:32:10;10.80;;;8.82;;
793;SDS011;380;48.738;9.214;2023-03-16T05:34:36;7.87;;;6.63;;
793;SDS011;380;48.738;9.214;2023-03-16T05:37:02;10.43;;;8.60;;
793;SDS011;380;48.738;9.214;2023-03-16T05:39:28;15.43;;;10.00;;
793;SDS011;380;48.738;9.214;2023-03-16T05:41:55;12.20;;;9.90;;
793;SDS011;380;48.738;9.214;2023-03-16T05:44:21;10.73;;;7.60;;
793;SDS011;380;48.738;9.214;2023-03-16T05:46:47;10.40;;;8.33;;
793;SDS011;380;48.738;9.214;2023-03-16T05:49:13;9.70;;;8.20;;
793;SDS011;380;48.738;9.214;2023-03-16T05:51:39;11.13;;;9.23;;
793;SDS011;380;48.738;9.214;2023-03-16T05:54:05;11.87;;;9.97;;
793;SDS011;380;48.738;9.214;2023-03-16T05:56:31;25.17;;;20.07;;
793;SDS011;380;48.738;9.214;2023-03-16T05:58:57;17.63;;;15.77;;
793;SDS011;380;48.738;9.214;2023-03-16T06:01:24;33.27;;;23.53;;
793;SDS011;380;48.738;9.214;2023-03-16T06:03:50;16.80;;;14.80;;
793;SDS011;380;48.738;9.214;2023-03-16T06:06:17;19.20;;;15.63;;
793;SDS011;380;48.738;9.214;2023-03-16T06:08:43;13.67;;;10.93;;
793;SDS011;380;48.738;9.214;2023-03-16T06:11:09;16.27;;;11.20;;
793;SDS011;380;48.738;9.214;2023-03-16T06:13:35;11.60;;;9.50;;
793;SDS011;380;48.738;9.214;2023-03-16T06:16:02;13.77;;;11.17;;
793;SDS011;380;48.738;9.214;2023-03-16T06:18:28;13.30;;;9.60;;
793;SDS011;380;48.738;9.214;2023-03-16T06:20:54;15.57;;;8.97;;
793;SDS011;380;48.738;9.214;2023-03-16T06:23:20;11.97;;;10.10;;
793;SDS011;380;48.738;9.214;2023-03-16T06:25:46;13.07;;;11.67;;
793;SDS011;380;48.738;9.214;2023-03-16T06:28:12;11.23;;;9.87;;
793;SDS011;380;48.738;9.214;2023-03-16T06:30:39;11.83;;;10.63;;
793;SDS011;380;48.738;9.214;2023-03-16T06:33:05;12.97;;;9.03;;
793;SDS011;380;48.738;9.214;2023-03-16T06:35:31;15.37;;;11.43;;
793;SDS011;380;48.738;9.214;2023-03-16T06:37:57;10.45;;;9.35;;
793;SDS011;380;48.738;9.214;2023-03-16T06:40:23;10.98;;;8.70;;
793;SDS011;380;48.738;9.214;2023-03-16T06:42:49;15.50;;;10.13;;
793;SDS011;380;48.738;9.214;2023-03-16T06:45:15;10.65;;;8.65;;
793;SDS011;380;48.738;9.214;2023-03-16T06:47:45;12.35;;;9.50;;
793;SDS011;380;48.738;9.214;2023-03-16T06:50:11;10.77;;;9.20;;
793;SDS011;380;48.738;9.214;2023-03-16T06:52:37;10.10;;;8.90;;
793;SDS011;380;48.738;9.214;2023-03-16T06:55:03;10.43;;;9.37;;
793;SDS011;380;48.738;9.214;2023-03-16T06:57:29;12.97;;;10.50;;
793;SDS011;380;48.738;9.214;2023-03-16T06:59:55;13.93;;;9.03;;
793;SDS011;380;48.738;9.214;2023-03-16T07:02:21;12.27;;;8.80;;
793;SDS011;380;48.738;9.214;2023-03-16T07:04:48;11.32;;;9.30;;
793;SDS011;380;48.738;9.214;2023-03-16T07:07:14;11.90;;;8.95;;
793;SDS011;380;48.738;9.214;2023-03-16T07:09:41;14.68;;;10.82;;
793;SDS011;380;48.738;9.214;2023-03-16T07:12:07;13.10;;;10.73;;
793;SDS011;380;48.738;9.214;2023-03-16T07:14:33;10.75;;;8.50;;
793;SDS011;380;48.738;9.214;2023-03-16T07:16:59;14.93;;;9.65;;
793;SDS011;380;48.738;9.214;2023-03-16T07:19:26;8.35;;;7.40;;
793;SDS011;380;48.738;9.214;2023-03-16T07:21:52;14.32;;;11.65;;
793;SDS011;380;48.738;9.214;2023-03-16T07:24:18;9.70;;;8.60;;
793;SDS011;380;48.738;9.214;2023-03-16T07:26:44;9.50;;;7.82;;
793;SDS011;380;48.738;9.214;2023-03-16T07:29:10;11.82;;;9.15;;
793;SDS011;380;48.738;9.214;2023-03-16T07:31:37;11.43;;;8.80;;
793;SDS011;380;48.738;9.214;2023-03-16T07:34:04;12.02;;;9.88;;
793;SDS011;380;48.738;9.214;2023-03-16T07:36:30;10.88;;;7.93;;
793;SDS011;380;48.738;9.214;2023-03-16T07:38:56;11.25;;;9.45;;
793;SDS011;380;48.738;9.214;2023-03-16T07:41:22;11.25;;;10.13;;
793;SDS011;380;48.738;9.214;2023-03-16T07:43:49;10.48;;;8.50;;
793;SDS011;380;48.738;9.214;2023-03-16T07:46:15;11.57;;;10.40;;
793;SDS011;380;48.738;9.214;2023-03-16T07:48:42;10.13;;;8.18;;
793;SDS011;380;48.738;9.214;2023-03-16T07:51:09;11.35;;;9.05;;
793;SDS011;380;48.738;9.214;2023-03-16T07:53:35;10.77;;;8.32;;
793;SDS011;380;48.738;9.214;2023-03-16T07:56:01;11.07;;;9.43;;
793;SDS011;380;48.738;9.214;2023-03-16T07:58:27;11.10;;;9.90;;
793;SDS011;380;48.738;9.214;2023-03-16T08:00:57;10.65;;;9.13;;
793;SDS011;380;48.738;9.214;2023-03-16T08:03:24;7.85;;;7.00;;
793;SDS011;380;48.738;9.214;2023-03-16T08:05:50;12.00;;;9.27;;
793;SDS011;380;48.738;9.214;2023-03-16T08:08:16;10.02;;;8.88;;
793;SDS011;380;48.738;9.214;2023-03-16T08:10:42;12.45;;;9.30;;
793;SDS011;380;48.738;9.214;2023-03-16T08:13:08;9.93;;;7.95;;
793;SDS011;380;48.738;9.214;2023-03-16T08:15:34;10.55;;;8.55;;
793;SDS011;380;48.738;9.214;2023-03-16T08:18:00;11.73;;;7.85;;
793;SDS011;380;48.738;9.214;2023-03-16T08:20:26;9.40;;;8.02;;
793;SDS011;380;48.738;9.214;2023-03-16T08:22:52;9.20;;;7.88;;
793;SDS011;380;48.738;9.214;2023-03-16T08:25:18;11.13;;;7.38;;
793;SDS011;380;48.738;9.214;2023-03-16T08:27:45;9.38;;;7.68;;
793;SDS011;380;48.738;9.214;2023-03-16T08:30:11;7.55;;;6.38;;
793;SDS011;380;48.738;9.214;2023-03-16T08:32:38;9.65;;;6.95;;
793;SDS011;380;48.738;9.214;2023-03-16T08:35:05;7.38;;;6.07;;
793;SDS011;380;48.738;9.214;2023-03-16T08:37:32;10.05;;;5.90;;
793;SDS011;380;48.738;9.214;2023-03-16T08:39:58;8.73;;;6.38;;
793;SDS011;380;48.738;9.214;2023-03-16T08:42:24;6.13;;;5.10;;
793;SDS011;380;48.738;9.214;2023-03-16T08:44:50;8.77;;;5.85;;
793;SDS011;380;48.738;9.214;2023-03-16T08:47:19;8.45;;;6.88;;
793;SDS011;380;48.738;9.214;2023-03-16T08:49:45;8.85;;;6.63;;
793;SDS011;380;48.738;9.214;2023-03-16T08:52:11;7.55;;;6.05;;
793;SDS011;380;48.738;9.214;2023-03-16T08:54:37;9.82;;;7.40;;
793;SDS011;380;48.738;9.214;2023-03-16T08:57:03;11.93;;;6.25;;
793;SDS011;380;48.738;9.214;2023-03-16T08:59:29;8.27;;;6.15;;
793;SDS011;380;48.738;9.214;2023-03-16T09:01:55;6.80;;;5.18;;
793;SDS011;380;48.738;9.214;2023-03-16T09:04:21;8.57;;;5.88;;
793;SDS011;380;48.738;9.214;2023-03-16T09:06:48;6.78;;;5.50;;
793;SDS011;380;48.738;9.214;2023-03-16T09:09:17;6.93;;;5.63;;
793;SDS011;380;48.738;9.214;2023-03-16T09:11:43;7.00;;;4.80;;
793;SDS011;380;48.738;9.214;2023-03-16T09:14:11;6.43;;;4.72;;
793;SDS011;380;48.738;9.214;2023-03-16T09:16:37;7.63;;;5.95;;
793;SDS011;380;48.738;9.214;2023-03-16T09:19:03;6.93;;;5.00;;
793;SDS011;380;48.738;9.214;2023-03-16T09:21:31;5.28;;;4.45;;
793;SDS011;380;48.738;9.214;2023-03-16T09:23:59;7.22;;;5.68;;
793;SDS011;380;48.738;9.214;2023-03-16T09:26:25;5.43;;;4.22;;
793;SDS011;380;48.738;9.214;2023-03-16T09:28:52;6.65;;;5.38;;
793;SDS011;380;48.738;9.214;2023-03-16T09:31:18;5.80;;;4.55;;
793;SDS011;380;48.738;9.214;2023-03-16T09:33:45;5.18;;;4.28;;
793;SDS011;380;48.738;9.214;2023-03-16T09:36:11;6.18;;;4.45;;
793;SDS011;380;48.738;9.214;2023-03-16T09:38:38;5.35;;;4.30;;
793;SDS011;380;48.738;9.214;2023-03-16T09:41:08;4.72;;;4.07;;
793;SDS011;380;48.738;9.214;2023-03-16T09:46:14;5.43;;;3.70;;
793;SDS011;380;48.738;9.214;2023-03-16T09:48:42;6.55;;;3.65;;
793;SDS011;380;48.738;9.214;2023-03-16T09:51:52;5.72;;;4.00;;
793;SDS011;380;48.738;9.214;2023-03-16T09:53:57;4.82;;;3.72;;
793;SDS011;380;48.738;9.214;2023-03-16T09:56:36;5.63;;;3.90;;
793;SDS011;380;48.738;9.214;2023-03-16T09:59:11;5.32;;;4.35;;
793;SDS011;380;48.738;9.214;2023-03-16T10:04:13;5.18;;;4.20;;
793;SDS011;380;48.738;9.214;2023-03-16T10:06:54;5.15;;;3.80;;
793;SDS011;380;48.738;9.214;2023-03-16T10:11:52;5.13;;;3.80;;
793;SDS011;380;48.738;9.214;2023-03-16T10:14:24;6.25;;;3.95;;
793;SDS011;380;48.738;9.214;2023-03-16T10:19:31;5.82;;;4.47;;
793;SDS011;380;48.738;9.214;2023-03-16T10:21:58;5.25;;;4.25;;
793;SDS011;380;48.738;9.214;2023-03-16T10:26:57;6.32;;;4.10;;
793;SDS011;380;48.738;9.214;2023-03-16T10:29:24;5.50;;;3.78;;
793;SDS011;380;48.738;9.214;2023-03-16T10:31:51;5.22;;;3.80;;
793;SDS011;380;48.738;9.214;2023-03-16T10:34:19;3.60;;;3.03;;
793;SDS011;380;48.738;9.214;2023-03-16T10:36:47;3.70;;;3.00;;
793;SDS011;380;48.738;9.214;2023-03-16T10:39:14;4.60;;;2.58;;
793;SDS011;380;48.738;9.214;2023-03-16T10:41:44;6.60;;;2.75;;
793;SDS011;380;48.738;9.214;2023-03-16T10:46:38;3.85;;;3.10;;
793;SDS011;380;48.738;9.214;2023-03-16T10:49:05;4.80;;;2.75;;
793;SDS011;380;48.738;9.214;2023-03-16T10:51:33;4.97;;;3.25;;
793;SDS011;380;48.738;9.214;2023-03-16T10:54:08;3.75;;;2.67;;
793;SDS011;380;48.738;9.214;2023-03-16T10:56:34;6.68;;;2.42;;
793;SDS011;380;48.738;9.214;2023-03-16T10:59:01;6.65;;;2.53;;
793;SDS011;380;48.738;9.214;2023-03-16T11:01:36;4.32;;;2.50;;
793;SDS011;380;48.738;9.214;2023-03-16T11:04:02;6.38;;;2.55;;
793;SDS011;380;48.738;9.214;2023-03-16T11:06:36;3.67;;;2.53;;
793;SDS011;380;48.738;9.214;2023-03-16T11:09:13;3.78;;;2.08;;
793;SDS011;380;48.738;9.214;2023-03-16T11:11:45;2.97;;;2.08;;
793;SDS011;380;48.738;9.214;2023-03-16T11:14:13;4.53;;;1.92;;
793;SDS011;380;48.738;9.214;2023-03-16T11:16:43;4.07;;;1.95;;
793;SDS011;380;48.738;9.214;2023-03-16T11:19:13;4.05;;;1.92;;
793;SDS011;380;48.738;9.214;2023-03-16T11:24:17;2.95;;;2.30;;
793;SDS011;380;48.738;9.214;2023-03-16T11:26:43;2.50;;;1.77;;
793;SDS011;380;48.738;9.214;2023-03-16T11:31:50;3.15;;;2.03;;
793;SDS011;380;48.738;9.214;2023-03-16T11:34:18;3.42;;;2.17;;
793;SDS011;380;48.738;9.214;2023-03-16T11:36:46;3.80;;;2.20;;
793;SDS011;380;48.738;9.214;2023-03-16T11:44:41;3.40;;;1.90;;
793;SDS011;380;48.738;9.214;2023-03-16T11:49:51;3.58;;;2.20;;
793;SDS011;380;48.738;9.214;2023-03-16T11:52:23;3.35;;;2.42;;
793;SDS011;380;48.738;9.214;2023-03-16T11:55:00;4.13;;;2.60;;
793;SDS011;380;48.738;9.214;2023-03-16T11:57:45;4.60;;;2.22;;
793;SDS011;380;48.738;9.214;2023-03-16T12:00:19;5.20;;;2.47;;
793;SDS011;380;48.738;9.214;2023-03-16T12:08:37;2.78;;;1.70;;
793;SDS011;380;48.738;9.214;2023-03-16T12:10:48;3.38;;;2.33;;
793;SDS011;380;48.738;9.214;2023-03-16T12:13:22;4.05;;;2.53;;
793;SDS011;380;48.738;9.214;2023-03-16T12:15:55;3.97;;;2.50;;
793;SDS011;380;48.738;9.214;2023-03-16T12:18:29;3.42;;;2.17;;
793;SDS011;380;48.738;9.214;2023-03-16T12:21:00;4.05;;;1.92;;
793;SDS011;380;48.738;9.214;2023-03-16T12:23:30;4.32;;;2.40;;
793;SDS011;380;48.738;9.214;2023-03-16T12:25:57;3.70;;;1.95;;
793;SDS011;380;48.738;9.214;2023-03-16T12:28:25;2.78;;;1.77;;
793;SDS011;380;48.738;9.214;2023-03-16T12:30:56;3.67;;;2.30;;
793;SDS011;380;48.738;9.214;2023-03-16T12:33:26;2.88;;;1.92;;
793;SDS011;380;48.738;9.214;2023-03-16T12:36:01;4.50;;;2.55;;
793;SDS011;380;48.738;9.214;2023-03-16T12:38:41;3.25;;;2.03;;
793;SDS011;380;48.738;9.214;2023-03-16T12:41:12;4.25;;;2.25;;
793;SDS011;380;48.738;9.214;2023-03-16T12:46:27;4.82;;;2.95;;
793;SDS011;380;48.738;9.214;2023-03-16T12:48:56;12.55;;;2.95;;
793;SDS011;380;48.738;9.214;2023-03-16T12:51:37;3.92;;;1.52;;
793;SDS011;380;48.738;9.214;2023-03-16T12:54:03;4.45;;;2.42;;
793;SDS011;380;48.738;9.214;2023-03-16T12:56:33;3.60;;;2.20;;
793;SDS011;380;48.738;9.214;2023-03-16T12:59:02;3.38;;;2.10;;
793;SDS011;380;48.738;9.214;2023-03-16T13:01:35;3.95;;;2.47;;
793;SDS011;380;48.738;9.214;2023-03-16T13:04:10;3.13;;;2.13;;
793;SDS011;380;48.738;9.214;2023-03-16T13:06:36;4.57;;;2.92;;
793;SDS011;380;48.738;9.214;2023-03-16T13:09:07;3.13;;;1.98;;
793;SDS011;380;48.738;9.214;2023-03-16T13:11:42;4.13;;;1.98;;
793;SDS011;380;48.738;9.214;2023-03-16T13:14:58;7.88;;;2.75;;
793;SDS011;380;48.738;9.214;2023-03-16T13:17:04;6.18;;;3.00;;
793;SDS011;380;48.738;9.214;2023-03-16T13:22:16;3.53;;;2.15;;
793;SDS011;380;48.738;9.214;2023-03-16T13:24:48;4.78;;;2.08;;
793;SDS011;380;48.738;9.214;2023-03-16T13:27:26;5.07;;;2.13;;
793;SDS011;380;48.738;9.214;2023-03-16T13:30:11;4.30;;;2.40;;
793;SDS011;380;48.738;9.214;2023-03-16T13:32:38;2.22;;;1.50;;
793;SDS011;380;48.738;9.214;2023-03-16T13:35:06;4.05;;;1.63;;
793;SDS011;380;48.738;9.214;2023-03-16T13:37:33;1.77;;;0.93;;
793;SDS011;380;48.738;9.214;2023-03-16T13:40:00;3.75;;;1.92;;
793;SDS011;380;48.738;9.214;2023-03-16T13:42:29;3.65;;;1.13;;
793;SDS011;380;48.738;9.214;2023-03-16T13:44:56;2.03;;;1.48;;
793;SDS011;380;48.738;9.214;2023-03-16T13:47:24;4.20;;;2.17;;
793;SDS011;380;48.738;9.214;2023-03-16T13:49:59;5.13;;;2.10;;
793;SDS011;380;48.738;9.214;2023-03-16T13:52:26;4.55;;;2.20;;
793;SDS011;380;48.738;9.214;2023-03-16T13:54:53;2.88;;;1.23;;
793;SDS011;380;48.738;9.214;2023-03-16T13:57:21;2.30;;;1.05;;
793;SDS011;380;48.738;9.214;2023-03-16T13:59:48;3.88;;;1.95;;
793;SDS011;380;48.738;9.214;2023-03-16T14:02:18;2.97;;;1.60;;
793;SDS011;380;48.738;9.214;2023-03-16T14:04:44;3.33;;;1.40;;
793;SDS011;380;48.738;9.214;2023-03-16T14:07:14;7.75;;;1.58;;
793;SDS011;380;48.738;9.214;2023-03-16T14:09:41;4.65;;;1.00;;
793;SDS011;380;48.738;9.214;2023-03-16T14:12:12;3.58;;;2.35;;
793;SDS011;380;48.738;9.214;2023-03-16T14:14:39;5.00;;;2.10;;
793;SDS011;380;48.738;9.214;2023-03-16T14:17:12;3.78;;;2.10;;
793;SDS011;380;48.738;9.214;2023-03-16T14:19:45;5.75;;;1.92;;
793;SDS011;380;48.738;9.214;2023-03-16T14:22:13;3.28;;;1.90;;
793;SDS011;380;48.738;9.214;2023-03-16T14:24:39;3.70;;;1.83;;
793;SDS011;380;48.738;9.214;2023-03-16T14:27:47;2.97;;;1.98;;
793;SDS011;380;48.738;9.214;2023-03-16T14:30:28;3.30;;;2.13;;
793;SDS011;380;48.738;9.214;2023-03-16T14:32:58;2.95;;;1.30;;
793;SDS011;380;48.738;9.214;2023-03-16T14:35:27;2.25;;;1.38;;
793;SDS011;380;48.738;9.214;2023-03-16T14:37:53;2.03;;;1.55;;
793;SDS011;380;48.738;9.214;2023-03-16T14:40:30;2.78;;;1.52;;
793;SDS011;380;48.738;9.214;2023-03-16T14:43:00;3.13;;;2.03;;
793;SDS011;380;48.738;9.214;2023-03-16T14:45:32;3.40;;;1.83;;
793;SDS011;380;48.738;9.214;2023-03-16T14:48:05;2.60;;;1.77;;
793;SDS011;380;48.738;9.214;2023-03-16T14:50:32;1.95;;;1.20;;
793;SDS011;380;48.738;9.214;2023-03-16T14:52:58;6.95;;;1.52;;
793;SDS011;380;48.738;9.214;2023-03-16T14:55:25;1.98;;;1.30;;
793;SDS011;380;48.738;9.214;2023-03-16T14:57:51;4.93;;;1.15;;
793;SDS011;380;48.738;9.214;2023-03-16T15:00:18;1.90;;;1.25;;
793;SDS011;380;48.738;9.214;2023-03-16T15:03:04;4.13;;;1.65;;
793;SDS011;380;48.738;9.214;2023-03-16T15:05:36;2.80;;;1.15;;
793;SDS011;380;48.738;9.214;2023-03-16T15:08:03;22.80;;;11.65;;
793;SDS011;380;48.738;9.214;2023-03-16T15:10:31;3.78;;;1.73;;
793;SDS011;380;48.738;9.214;2023-03-16T15:12:58;2.25;;;1.33;;
793;SDS011;380;48.738;9.214;2023-03-16T15:15:37;2.53;;;1.40;;
793;SDS011;380;48.738;9.214;2023-03-16T15:18:05;2.35;;;0.93;;
793;SDS011;380;48.738;9.214;2023-03-16T15:20:35;2.78;;;1.25;;
793;SDS011;380;48.738;9.214;2023-03-16T15:23:03;2.28;;;1.42;;
793;SDS011;380;48.738;9.214;2023-03-16T15:25:34;2.30;;;1.30;;
793;SDS011;380;48.738;9.214;2023-03-16T15:28:11;2.05;;;1.35;;
793;SDS011;380;48.738;9.214;2023-03-16T15:30:37;1.55;;;1.02;;
793;SDS011;380;48.738;9.214;2023-03-16T15:33:03;3.72;;;1.23;;
793;SDS011;380;48.738;9.214;2023-03-16T15:35:30;1.95;;;1.42;;
793;SDS011;380;48.738;9.214;2023-03-16T15:37:56;3.80;;;0.95;;
793;SDS011;380;48.738;9.214;2023-03-16T15:40:23;3.00;;;1.00;;
793;SDS011;380;48.738;9.214;2023-03-16T15:42:50;2.22;;;1.23;;
793;SDS011;380;48.738;9.214;2023-03-16T15:45:17;2.10;;;1.27;;
793;SDS011;380;48.738;9.214;2023-03-16T15:47:44;5.05;;;2.20;;
793;SDS011;380;48.738;9.214;2023-03-16T15:50:12;2.95;;;1.48;;
793;SDS011;380;48.738;9.214;2023-03-16T15:52:39;3.38;;;2.13;;
793;SDS011;380;48.738;9.214;2023-03-16T15:55:12;4.38;;;1.48;;
793;SDS011;380;48.738;9.214;2023-03-16T15:57:39;3.17;;;1.58;;
793;SDS011;380;48.738;9.214;2023-03-16T16:00:05;2.67;;;1.23;;
793;SDS011;380;48.738;9.214;2023-03-16T16:02:31;16.90;;;9.32;;
793;SDS011;380;48.738;9.214;2023-03-16T16:04:57;34.92;;;17.30;;
793;SDS011;380;48.738;9.214;2023-03-16T16:07:23;58.42;;;32.85;;
793;SDS011;380;48.738;9.214;2023-03-16T16:09:50;8.85;;;4.00;;
793;SDS011;380;48.738;9.214;2023-03-16T16:12:16;13.63;;;6.78;;
793;SDS011;380;48.738;9.214;2023-03-16T16:14:45;4.65;;;3.13;;
793;SDS011;380;48.738;9.214;2023-03-16T16:17:11;3.85;;;2.00;;
793;SDS011;380;48.738;9.214;2023-03-16T16:19:39;3.75;;;2.72;;
793;SDS011;380;48.738;9.214;2023-03-16T16:22:09;9.15;;;3.38;;
793;SDS011;380;48.738;9.214;2023-03-16T16:24:35;6.90;;;4.93;;
793;SDS011;380;48.738;9.214;2023-03-16T16:27:02;6.82;;;3.40;;
793;SDS011;380;48.738;9.214;2023-03-16T16:29:29;3.78;;;2.45;;
793;SDS011;380;48.738;9.214;2023-03-16T16:31:59;4.28;;;1.95;;
793;SDS011;380;48.738;9.214;2023-03-16T16:34:25;3.45;;;2.05;;